createdAt,value
2018-11-22T00:03:04.237Z,74.54
2018-11-22T00:05:52.915Z,71.32
2018-11-22T00:08:41.424Z,75.32
2018-11-22T00:11:29.926Z,76.76
2018-11-22T00:14:37.709Z,76.60
2018-11-22T00:17:26.606Z,76.66
2018-11-22T00:20:15.316Z,76.44
2018-11-22T00:23:04.147Z,76.55
2018-11-22T00:25:52.959Z,77.04
2018-11-22T00:28:41.527Z,74.15
2018-11-22T00:31:30.057Z,76.00
2018-11-22T00:37:13.258Z,75.01
2018-11-22T00:40:01.838Z,75.81
2018-11-22T00:42:50.686Z,75.83
2018-11-22T00:45:39.530Z,76.34
2018-11-22T00:48:28.005Z,75.80
2018-11-22T00:51:16.500Z,75.90
2018-11-22T00:54:05.047Z,75.94
2018-11-22T00:56:53.768Z,75.81
2018-11-22T01:02:37.297Z,76.06
2018-11-22T01:05:26.701Z,74.28
2018-11-22T01:08:15.206Z,75.38
2018-11-22T01:11:03.979Z,75.49
2018-11-22T01:13:52.489Z,73.48
2018-11-22T01:16:40.953Z,73.94
2018-11-22T01:19:29.441Z,75.72
2018-11-22T01:22:18.171Z,76.09
2018-11-22T01:25:07.964Z,76.41
2018-11-22T01:27:56.471Z,76.18
2018-11-22T01:30:44.954Z,74.40
2018-11-22T01:33:33.481Z,71.87
2018-11-22T01:36:22.259Z,75.13
2018-11-22T01:39:11.767Z,76.31
2018-11-22T01:42:00.300Z,75.06
2018-11-22T01:44:49.338Z,75.45
2018-11-22T01:47:38.240Z,75.64
2018-11-22T01:50:26.772Z,73.47
2018-11-22T01:56:08.962Z,73.76
2018-11-22T01:58:57.728Z,74.03
2018-11-22T02:01:46.212Z,74.21
2018-11-22T02:04:34.809Z,73.93
2018-11-22T02:07:23.251Z,71.04
2018-11-22T02:10:13.473Z,74.38
2018-11-22T02:13:01.950Z,74.89
2018-11-22T02:15:50.729Z,74.89
2018-11-22T02:18:39.412Z,74.02
2018-11-22T02:21:28.405Z,73.48
2018-11-22T02:24:16.879Z,76.04
2018-11-22T02:27:06.104Z,72.72
2018-11-22T02:29:54.722Z,70.63
2018-11-22T02:32:44.455Z,73.58
2018-11-22T02:35:32.868Z,74.83
2018-11-22T02:38:21.356Z,74.41
2018-11-22T02:41:09.824Z,72.91
2018-11-22T02:43:58.287Z,73.37
2018-11-22T02:46:46.772Z,71.38
2018-11-22T02:49:35.256Z,72.35
2018-11-22T02:52:23.722Z,69.77
2018-11-22T02:55:12.475Z,74.49
2018-11-22T02:58:00.976Z,74.53
2018-11-22T03:00:49.942Z,72.39
2018-11-22T03:03:38.463Z,72.88
2018-11-22T03:06:27.687Z,74.13
2018-11-22T03:09:16.460Z,72.59
2018-11-22T03:12:05.009Z,73.64
2018-11-22T03:14:53.490Z,70.34
2018-11-22T03:17:42.765Z,70.60
2018-11-22T03:20:31.264Z,72.54
2018-11-22T03:23:20.500Z,73.20
2018-11-22T03:26:08.984Z,73.86
2018-11-22T03:28:57.455Z,73.11
2018-11-22T03:31:46.359Z,74.08
2018-11-22T03:34:34.862Z,73.79
2018-11-22T03:37:23.667Z,74.28
2018-11-22T03:40:22.209Z,72.62
2018-11-22T03:43:10.693Z,74.11
2018-11-22T03:45:59.695Z,75.20
2018-11-22T03:48:48.267Z,75.11
2018-11-22T03:51:36.775Z,75.26
2018-11-22T03:54:25.733Z,74.86
2018-11-22T03:57:14.694Z,75.23
2018-11-22T04:00:03.240Z,75.09
2018-11-22T04:02:52.735Z,75.29
2018-11-22T04:05:41.682Z,74.67
2018-11-22T04:08:30.145Z,74.94
2018-11-22T04:11:18.647Z,73.86
2018-11-22T04:14:07.769Z,75.79
2018-11-22T04:16:56.231Z,74.66
2018-11-22T04:19:45.061Z,73.70
2018-11-22T04:22:33.945Z,72.07
2018-11-22T04:25:22.930Z,73.15
2018-11-22T04:28:12.140Z,73.04
2018-11-22T04:31:00.593Z,74.78
2018-11-22T04:33:49.071Z,73.32
2018-11-22T04:36:37.528Z,68.81
2018-11-22T04:39:26.477Z,72.54
2018-11-22T04:42:14.942Z,72.19
2018-11-22T04:45:03.507Z,71.97
2018-11-22T04:47:53.363Z,75.01
2018-11-22T04:50:41.843Z,71.53
2018-11-22T04:53:30.299Z,73.77
2018-11-22T04:56:18.772Z,73.77
2018-11-22T04:59:07.971Z,74.35
2018-11-22T05:01:56.454Z,73.93
2018-11-22T05:04:44.921Z,71.95
2018-11-22T05:07:33.403Z,72.20
2018-11-22T05:10:16.262Z,71.80
2018-11-22T05:13:04.907Z,73.43
2018-11-22T05:15:53.684Z,72.94
2018-11-22T05:18:42.163Z,74.24
2018-11-22T05:21:30.730Z,72.05
2018-11-22T05:24:19.332Z,73.13
2018-11-22T05:27:07.874Z,73.93
2018-11-22T05:29:57.133Z,74.24
2018-11-22T05:32:46.099Z,74.60
2018-11-22T05:35:34.930Z,75.17
2018-11-22T05:38:23.549Z,75.64
2018-11-22T05:41:12.039Z,75.99
2018-11-22T05:44:00.553Z,75.41
2018-11-22T05:46:49.345Z,75.66
2018-11-22T05:49:37.942Z,74.45
2018-11-22T05:52:26.477Z,73.99
2018-11-22T05:55:15.353Z,75.00
2018-11-22T05:58:03.903Z,74.71
2018-11-22T06:00:52.396Z,74.99
2018-11-22T06:03:41.365Z,74.26
2018-11-22T06:06:29.853Z,74.02
2018-11-22T06:09:18.610Z,73.43
2018-11-22T06:12:07.474Z,72.56
2018-11-22T06:15:15.264Z,72.89
2018-11-22T06:18:22.976Z,72.46
2018-11-22T06:21:12.180Z,72.50
2018-11-22T06:24:00.852Z,72.35
2018-11-22T06:26:49.836Z,74.32
2018-11-22T06:29:38.336Z,72.38
2018-11-22T06:32:27.143Z,72.61
2018-11-22T06:35:15.897Z,72.63
2018-11-22T06:38:04.366Z,72.78
2018-11-22T06:40:52.843Z,73.43
2018-11-22T06:43:41.308Z,72.66
2018-11-22T06:46:30.857Z,72.67
2018-11-22T06:49:19.639Z,73.72
2018-11-22T06:52:08.553Z,72.62
2018-11-22T06:54:57.504Z,73.03
2018-11-22T06:57:45.997Z,73.39
2018-11-22T07:03:29.137Z,72.03
2018-11-22T07:06:17.630Z,70.96
2018-11-22T07:09:07.580Z,72.50
2018-11-22T07:11:56.076Z,73.25
2018-11-22T07:14:44.578Z,69.26
2018-11-22T07:17:33.076Z,71.79
2018-11-22T07:20:23.423Z,71.21
2018-11-22T07:23:12.486Z,71.99
2018-11-22T07:26:00.939Z,72.60
2018-11-22T07:28:49.792Z,72.25
2018-11-22T07:31:38.202Z,70.68
2018-11-22T07:34:26.735Z,71.67
2018-11-22T07:37:15.358Z,69.84
2018-11-22T07:40:04.121Z,71.18
2018-11-22T07:42:52.788Z,68.51
2018-11-22T07:45:42.658Z,69.00
2018-11-22T07:48:31.612Z,68.46
2018-11-22T07:51:20.100Z,70.81
2018-11-22T07:54:08.566Z,72.42
2018-11-22T07:56:57.795Z,72.47
2018-11-22T07:59:46.722Z,71.75
2018-11-22T08:02:35.203Z,72.09
2018-11-22T08:05:24.614Z,72.02
2018-11-22T08:08:13.134Z,69.82
2018-11-22T08:11:01.615Z,72.76
2018-11-22T08:13:50.137Z,72.98
2018-11-22T08:16:38.652Z,72.72
2018-11-22T08:19:27.125Z,72.20
2018-11-22T08:22:15.752Z,69.90
2018-11-22T08:25:04.849Z,67.26
2018-11-22T08:27:53.735Z,67.69
2018-11-22T08:30:42.246Z,69.46
2018-11-22T08:33:31.211Z,70.20
2018-11-22T08:36:19.709Z,70.62
2018-11-22T08:39:09.697Z,67.16
2018-11-22T08:44:52.952Z,69.54
2018-11-22T08:47:41.515Z,67.47
2018-11-22T08:50:30.917Z,69.29
2018-11-22T08:53:19.435Z,68.98
2018-11-22T08:56:07.936Z,65.92
2018-11-22T08:58:56.425Z,66.55
2018-11-22T09:01:44.933Z,67.38
2018-11-22T09:07:21.065Z,70.70
2018-11-22T09:10:11.931Z,66.82
2018-11-22T09:13:01.204Z,64.08
2018-11-22T09:15:49.771Z,63.35
2018-11-22T09:18:57.831Z,68.47
2018-11-22T09:21:46.383Z,66.52
2018-11-22T09:24:35.582Z,67.08
2018-11-22T09:27:24.511Z,68.40
2018-11-22T09:30:35.642Z,67.42
2018-11-22T09:33:24.138Z,65.36
2018-11-22T09:36:12.869Z,66.94
2018-11-22T09:38:42.104Z,64.61
2018-11-22T09:41:11.081Z,66.12
2018-11-22T09:43:59.560Z,62.70
2018-11-22T09:46:48.431Z,61.29
2018-11-22T09:49:37.446Z,66.60
2018-11-22T09:52:25.940Z,64.64
2018-11-22T09:55:15.170Z,64.84
2018-11-22T09:58:03.653Z,65.40
2018-11-22T10:00:52.181Z,64.59
2018-11-22T10:03:40.682Z,65.59
2018-11-22T10:06:29.161Z,67.11
2018-11-22T10:09:17.888Z,66.77
2018-11-22T10:12:06.392Z,63.77
2018-11-22T10:15:14.496Z,67.03
2018-11-22T10:18:03.013Z,66.45
2018-11-22T10:20:51.697Z,64.95
2018-11-22T10:23:40.180Z,65.91
2018-11-22T10:26:28.697Z,63.67
2018-11-22T10:29:17.283Z,64.51
2018-11-22T10:32:05.736Z,69.17
2018-11-22T10:34:55.202Z,70.27
2018-11-22T10:37:44.227Z,67.72
2018-11-22T10:40:15.016Z,65.02
2018-11-22T10:45:52.512Z,67.89
2018-11-22T10:48:41.992Z,71.22
2018-11-22T10:51:11.039Z,70.91
2018-11-22T10:53:40.295Z,70.78
2018-11-22T10:56:09.465Z,71.52
2018-11-22T10:58:38.473Z,71.00
2018-11-22T11:04:52.826Z,70.57
2018-11-22T11:07:48.324Z,71.20
2018-11-22T11:10:17.935Z,69.31
2018-11-22T11:12:47.834Z,68.20
2018-11-22T11:15:17.633Z,67.18
2018-11-22T11:18:06.235Z,66.92
2018-11-22T11:20:54.696Z,70.16
2018-11-22T11:23:43.186Z,70.73
2018-11-22T11:26:32.091Z,69.32
2018-11-22T11:29:20.730Z,70.61
2018-11-22T11:32:09.222Z,69.02
2018-11-22T11:34:57.733Z,66.96
2018-11-22T11:37:46.210Z,69.11
2018-11-22T11:40:36.238Z,68.39
2018-11-22T11:43:25.000Z,69.32
2018-11-22T11:46:14.681Z,71.03
2018-11-22T11:48:44.101Z,70.16
2018-11-22T11:51:13.104Z,71.10
2018-11-22T11:53:42.358Z,70.10
2018-11-22T11:56:11.787Z,69.32
2018-11-22T11:59:00.253Z,69.14
2018-11-22T12:01:49.043Z,68.98
2018-11-22T12:04:37.545Z,70.22
2018-11-22T12:07:26.081Z,71.51
2018-11-22T12:10:16.086Z,69.84
2018-11-22T12:13:04.582Z,67.48
2018-11-22T12:15:53.204Z,69.62
2018-11-22T12:18:42.129Z,70.11
2018-11-22T12:21:30.906Z,71.50
2018-11-22T12:24:19.481Z,70.15
2018-11-22T12:27:07.959Z,70.11
2018-11-22T12:29:57.006Z,67.57
2018-11-22T12:33:04.631Z,64.66
2018-11-22T12:36:12.351Z,66.10
2018-11-22T12:39:01.299Z,63.38
2018-11-22T12:41:49.808Z,67.13
2018-11-22T12:44:38.335Z,67.83
2018-11-22T12:47:27.098Z,66.56
2018-11-22T12:50:16.123Z,69.32
2018-11-22T12:53:23.856Z,70.78
2018-11-22T12:56:12.630Z,70.16
2018-11-22T12:59:01.123Z,71.38
2018-11-22T13:01:49.694Z,69.18
2018-11-22T13:04:38.251Z,66.99
2018-11-22T13:07:27.037Z,67.74
2018-11-22T13:10:16.733Z,70.60
2018-11-22T13:13:05.498Z,70.38
2018-11-22T13:15:54.062Z,69.31
2018-11-22T13:18:42.584Z,71.01
2018-11-22T13:21:31.152Z,68.04
2018-11-22T13:24:19.593Z,69.14
2018-11-22T13:27:08.132Z,69.34
2018-11-22T13:29:56.661Z,67.16
2018-11-22T13:35:53.577Z,70.08
2018-11-22T13:38:42.655Z,68.11
2018-11-22T13:41:31.343Z,66.73
2018-11-22T13:44:19.990Z,67.71
2018-11-22T13:47:08.496Z,67.06
2018-11-22T13:49:56.998Z,69.43
2018-11-22T13:52:46.533Z,66.79
2018-11-22T13:55:35.038Z,70.14
2018-11-22T13:58:23.570Z,69.77
2018-11-22T14:01:12.286Z,69.11
2018-11-22T14:04:01.796Z,71.81
2018-11-22T14:06:30.843Z,71.18
2018-11-22T14:09:00.195Z,72.39
2018-11-22T14:11:29.676Z,71.11
2018-11-22T14:13:58.751Z,71.88
2018-11-22T14:16:28.094Z,71.11
2018-11-22T14:19:16.589Z,72.25
2018-11-22T14:22:05.681Z,73.54
2018-11-22T14:24:54.154Z,72.33
2018-11-22T14:27:43.430Z,73.69
2018-11-22T14:30:33.742Z,72.12
2018-11-22T14:33:22.324Z,70.69
2018-11-22T14:36:11.432Z,71.98
2018-11-22T14:38:59.930Z,72.73
2018-11-22T14:41:48.929Z,73.81
2018-11-22T14:44:18.591Z,72.64
2018-11-22T14:46:47.596Z,70.83
2018-11-22T14:49:17.146Z,72.35
2018-11-22T14:52:06.367Z,72.04
2018-11-22T14:54:54.876Z,72.55
2018-11-22T14:57:43.367Z,72.10
2018-11-22T15:00:32.188Z,70.55
2018-11-22T15:03:20.826Z,70.26
2018-11-22T15:05:49.822Z,72.14
2018-11-22T15:08:18.987Z,70.12
2018-11-22T15:10:48.020Z,70.72
2018-11-22T15:13:36.798Z,67.81
2018-11-22T15:16:27.506Z,71.91
2018-11-22T15:19:17.764Z,72.02
2018-11-22T15:22:06.560Z,71.91
2018-11-22T15:24:55.162Z,70.78
2018-11-22T15:27:44.246Z,71.37
2018-11-22T15:30:32.799Z,72.17
2018-11-22T15:33:21.865Z,71.58
2018-11-22T15:36:10.677Z,69.35
2018-11-22T15:38:59.208Z,68.16
2018-11-22T15:41:40.356Z,68.38
2018-11-22T15:44:28.875Z,69.12
2018-11-22T15:47:17.381Z,65.84
2018-11-22T15:50:07.883Z,66.00
2018-11-22T15:52:37.004Z,67.79
2018-11-22T15:55:06.741Z,66.29
2018-11-22T15:57:36.457Z,67.06
2018-11-22T16:00:09.521Z,67.01
2018-11-22T16:02:38.503Z,69.23
2018-11-22T16:05:08.899Z,68.85
2018-11-22T16:07:37.903Z,65.98
2018-11-22T16:10:10.943Z,68.66
2018-11-22T16:12:40.186Z,70.69
2018-11-22T16:15:49.994Z,70.96
2018-11-22T16:18:38.749Z,72.10
2018-11-22T16:21:27.271Z,69.02
2018-11-22T16:24:15.869Z,68.80
2018-11-22T16:27:04.494Z,71.26
2018-11-22T16:29:52.958Z,69.02
2018-11-22T16:32:41.722Z,69.60
2018-11-22T16:35:33.541Z,68.87
2018-11-22T16:38:19.218Z,69.18
2018-11-22T16:41:07.683Z,70.27
2018-11-22T16:43:59.614Z,68.24
2018-11-22T16:47:04.505Z,70.55
2018-11-22T16:49:52.962Z,71.17
2018-11-22T16:52:42.254Z,69.05
2018-11-22T16:55:30.713Z,68.00
2018-11-22T16:58:19.251Z,69.56
2018-11-22T17:01:08.424Z,71.18
2018-11-22T17:03:37.919Z,71.16
2018-11-22T17:06:26.383Z,68.90
2018-11-22T17:09:14.852Z,68.34
2018-11-22T17:12:03.351Z,65.53
2018-11-22T17:14:52.266Z,66.61
2018-11-22T17:17:40.752Z,66.58
2018-11-22T17:20:30.540Z,66.18
2018-11-22T17:23:19.097Z,63.63
2018-11-22T17:26:07.583Z,66.48
2018-11-22T17:28:56.068Z,66.26
2018-11-22T17:31:44.911Z,67.13
2018-11-22T17:34:33.836Z,70.10
2018-11-22T17:37:22.299Z,69.81
2018-11-22T17:40:16.562Z,70.33
2018-11-22T17:43:05.522Z,68.93
2018-11-22T17:45:54.018Z,69.38
2018-11-22T17:48:42.494Z,68.72
2018-11-22T17:51:31.100Z,69.12
2018-11-22T17:54:19.563Z,65.92
2018-11-22T17:57:08.329Z,65.90
2018-11-22T17:59:37.305Z,66.04
2018-11-22T18:02:06.790Z,67.29
2018-11-22T18:04:35.806Z,66.91
2018-11-22T18:07:06.192Z,67.62
2018-11-22T18:09:35.165Z,69.19
2018-11-22T18:12:04.187Z,69.51
2018-11-22T18:14:33.165Z,68.07
2018-11-22T18:17:02.374Z,67.23
2018-11-22T18:19:31.385Z,67.29
2018-11-22T18:22:00.633Z,68.37
2018-11-22T18:24:29.650Z,65.76
2018-11-22T18:26:58.663Z,67.76
2018-11-22T18:29:27.603Z,68.05
2018-11-22T18:31:56.865Z,65.61
2018-11-22T18:34:45.669Z,66.69
2018-11-22T18:37:34.517Z,65.29
2018-11-22T18:40:24.312Z,66.58
2018-11-22T18:43:13.333Z,70.22
2018-11-22T18:46:01.833Z,72.25
2018-11-22T18:48:50.860Z,71.10
2018-11-22T18:51:20.321Z,69.25
2018-11-22T18:53:49.341Z,72.17
2018-11-22T18:56:18.526Z,71.56
2018-11-22T18:58:47.632Z,68.12
2018-11-22T19:01:16.717Z,69.29
2018-11-22T19:03:46.588Z,70.17
2018-11-22T19:06:16.013Z,68.37
2018-11-22T19:08:45.177Z,69.02
2018-11-22T19:11:14.273Z,68.04
2018-11-22T19:13:43.259Z,68.73
2018-11-22T19:16:12.745Z,68.55
2018-11-22T19:18:41.842Z,70.58
2018-11-22T19:21:11.083Z,67.78
2018-11-22T19:23:40.174Z,69.65
2018-11-22T19:26:09.330Z,68.99
2018-11-22T19:28:38.309Z,69.42
2018-11-22T19:31:07.266Z,69.03
2018-11-22T19:33:36.365Z,69.36
2018-11-22T19:36:05.562Z,68.45
2018-11-22T19:38:34.837Z,67.48
2018-11-22T19:41:04.237Z,67.58
2018-11-22T19:43:33.247Z,68.20
2018-11-22T19:46:02.314Z,67.23
2018-11-22T19:48:32.763Z,67.60
2018-11-22T19:51:05.609Z,68.78
2018-11-22T19:53:30.508Z,72.20
2018-11-22T19:55:59.466Z,71.96
2018-11-22T19:58:28.505Z,72.51
2018-11-22T20:00:57.463Z,74.98
2018-11-22T20:03:26.872Z,72.99
2018-11-22T20:05:55.870Z,71.68
2018-11-22T20:08:24.872Z,69.63
2018-11-22T20:10:54.201Z,68.11
2018-11-22T20:13:23.469Z,68.11
2018-11-22T20:15:52.853Z,68.74
2018-11-22T20:18:22.183Z,68.74
2018-11-22T20:20:51.561Z,68.13
2018-11-22T20:23:21.848Z,68.29
2018-11-22T20:25:49.825Z,68.73
2018-11-22T20:28:18.797Z,68.36
2018-11-22T20:30:48.204Z,67.92
2018-11-22T20:33:17.178Z,65.10
2018-11-22T20:35:46.315Z,65.94
2018-11-22T20:38:15.331Z,65.01
2018-11-22T20:43:58.260Z,66.30
2018-11-22T20:46:46.766Z,65.13
2018-11-22T20:49:35.268Z,65.55
2018-11-22T20:52:23.771Z,67.02
2018-11-22T20:55:15.390Z,66.46
2018-11-22T20:58:05.227Z,67.64
2018-11-22T21:00:54.287Z,71.11
2018-11-22T21:03:42.825Z,69.47
2018-11-22T21:06:31.293Z,68.68
2018-11-22T21:09:19.836Z,68.91
2018-11-22T21:12:08.362Z,69.54
2018-11-22T21:15:17.479Z,68.70
2018-11-22T21:17:47.933Z,69.51
2018-11-22T21:20:20.396Z,67.75
2018-11-22T21:23:10.611Z,66.89
2018-11-22T21:25:59.943Z,66.16
2018-11-22T21:28:49.502Z,68.45
2018-11-22T21:31:38.011Z,68.93
2018-11-22T21:34:27.300Z,71.38
2018-11-22T21:37:16.943Z,74.07
2018-11-22T21:40:06.404Z,71.67
2018-11-22T21:42:55.583Z,71.75
2018-11-22T21:45:26.203Z,69.29
2018-11-22T21:47:55.397Z,69.83
2018-11-22T21:50:44.988Z,67.09
2018-11-22T21:53:14.039Z,67.79
2018-11-22T21:55:43.289Z,67.43
2018-11-22T21:58:32.683Z,71.80
2018-11-22T22:01:22.164Z,71.52
2018-11-22T22:04:30.380Z,70.17
2018-11-22T22:07:38.634Z,70.32
2018-11-22T22:10:28.073Z,73.60
2018-11-22T22:12:59.328Z,73.02
2018-11-22T22:15:29.566Z,71.42
2018-11-22T22:17:59.489Z,67.74
2018-11-22T22:20:30.075Z,68.31
2018-11-22T22:22:59.799Z,67.54
2018-11-22T22:25:29.546Z,70.53
2018-11-22T22:28:02.010Z,66.21
2018-11-22T22:30:33.130Z,67.98
2018-11-22T22:33:06.655Z,64.95
2018-11-22T22:35:36.894Z,64.27
2018-11-22T22:38:08.710Z,64.42
2018-11-22T22:40:38.332Z,66.20
2018-11-22T22:43:07.990Z,66.60
2018-11-22T22:45:36.943Z,66.01
2018-11-22T22:48:05.976Z,65.03
2018-11-22T22:50:35.297Z,64.18
2018-11-22T22:53:04.538Z,63.91
2018-11-22T22:55:33.746Z,63.69
2018-11-22T22:58:02.795Z,63.12
2018-11-22T23:00:50.730Z,63.48
2018-11-22T23:03:19.786Z,63.63
2018-11-22T23:05:48.996Z,64.85
2018-11-22T23:08:18.019Z,64.97
2018-11-22T23:10:47.076Z,64.06
2018-11-22T23:13:16.226Z,66.29
2018-11-22T23:15:45.374Z,64.41
2018-11-22T23:18:15.205Z,64.09
2018-11-22T23:20:44.148Z,63.19
2018-11-22T23:23:13.430Z,63.78
2018-11-22T23:25:42.466Z,63.80
2018-11-22T23:28:11.502Z,63.17
2018-11-22T23:30:40.550Z,63.59
2018-11-22T23:33:10.215Z,63.21
2018-11-22T23:35:39.391Z,62.77
2018-11-22T23:38:08.530Z,65.08
2018-11-22T23:40:37.805Z,65.44
2018-11-22T23:43:06.921Z,68.24
2018-11-22T23:45:35.977Z,71.55
2018-11-22T23:48:09.807Z,70.82
2018-11-22T23:50:41.298Z,69.41
2018-11-22T23:53:10.583Z,65.37
2018-11-22T23:55:40.103Z,64.44
2018-11-22T23:58:09.076Z,64.62
